sensor_id;sensor_type;location;lat;lon;timestamp;P1;durP1;ratioP1;P2;durP2;ratioP2
8536;SDS011;4306;50.210;10.628;2022-08-19T00:01:14;25.55;;;20.98;;
8536;SDS011;4306;50.210;10.628;2022-08-19T00:03:41;28.00;;;21.05;;
8536;SDS011;4306;50.210;10.628;2022-08-19T00:06:08;27.70;;;21.33;;
8536;SDS011;4306;50.210;10.628;2022-08-19T00:08:37;28.20;;;20.83;;
8536;SDS011;4306;50.210;10.628;2022-08-19T00:11:04;29.52;;;22.15;;
8536;SDS011;4306;50.210;10.628;2022-08-19T00:13:31;26.60;;;20.80;;
8536;SDS011;4306;50.210;10.628;2022-08-19T00:15:58;27.10;;;22.00;;
8536;SDS011;4306;50.210;10.628;2022-08-19T00:18:25;27.30;;;21.48;;
8536;SDS011;4306;50.210;10.628;2022-08-19T00:20:52;26.00;;;20.75;;
8536;SDS011;4306;50.210;10.628;2022-08-19T00:23:19;28.75;;;21.38;;
8536;SDS011;4306;50.210;10.628;2022-08-19T00:25:48;29.00;;;21.33;;
8536;SDS011;4306;50.210;10.628;2022-08-19T00:28:15;28.23;;;20.60;;
8536;SDS011;4306;50.210;10.628;2022-08-19T00:30:42;25.48;;;20.98;;
8536;SDS011;4306;50.210;10.628;2022-08-19T00:33:09;27.58;;;20.48;;
8536;SDS011;4306;50.210;10.628;2022-08-19T00:35:36;27.08;;;21.60;;
8536;SDS011;4306;50.210;10.628;2022-08-19T00:38:03;26.17;;;19.85;;
8536;SDS011;4306;50.210;10.628;2022-08-19T00:40:31;26.67;;;19.98;;
8536;SDS011;4306;50.210;10.628;2022-08-19T00:43:00;24.55;;;19.92;;
8536;SDS011;4306;50.210;10.628;2022-08-19T00:45:27;25.42;;;19.27;;
8536;SDS011;4306;50.210;10.628;2022-08-19T00:47:57;26.90;;;19.92;;
8536;SDS011;4306;50.210;10.628;2022-08-19T00:50:28;24.55;;;18.20;;
8536;SDS011;4306;50.210;10.628;2022-08-19T00:52:55;27.02;;;18.58;;
8536;SDS011;4306;50.210;10.628;2022-08-19T00:55:25;23.52;;;18.88;;
8536;SDS011;4306;50.210;10.628;2022-08-19T00:57:55;24.35;;;19.67;;
8536;SDS011;4306;50.210;10.628;2022-08-19T01:00:26;22.58;;;17.85;;
8536;SDS011;4306;50.210;10.628;2022-08-19T01:02:55;25.92;;;19.58;;
8536;SDS011;4306;50.210;10.628;2022-08-19T01:05:24;22.63;;;18.73;;
8536;SDS011;4306;50.210;10.628;2022-08-19T01:07:53;22.52;;;17.90;;
8536;SDS011;4306;50.210;10.628;2022-08-19T01:10:23;23.20;;;18.67;;
8536;SDS011;4306;50.210;10.628;2022-08-19T01:12:52;22.98;;;18.17;;
8536;SDS011;4306;50.210;10.628;2022-08-19T01:15:22;22.00;;;17.48;;
8536;SDS011;4306;50.210;10.628;2022-08-19T01:17:53;24.77;;;19.25;;
8536;SDS011;4306;50.210;10.628;2022-08-19T01:20:22;27.65;;;18.50;;
8536;SDS011;4306;50.210;10.628;2022-08-19T01:22:52;23.33;;;18.75;;
8536;SDS011;4306;50.210;10.628;2022-08-19T01:25:22;23.35;;;18.77;;
8536;SDS011;4306;50.210;10.628;2022-08-19T01:27:52;22.75;;;17.92;;
8536;SDS011;4306;50.210;10.628;2022-08-19T01:30:26;20.83;;;16.85;;
8536;SDS011;4306;50.210;10.628;2022-08-19T01:32:55;23.17;;;17.75;;
8536;SDS011;4306;50.210;10.628;2022-08-19T01:35:24;23.75;;;18.25;;
8536;SDS011;4306;50.210;10.628;2022-08-19T01:37:56;20.48;;;16.80;;
8536;SDS011;4306;50.210;10.628;2022-08-19T01:40:27;19.02;;;16.45;;
8536;SDS011;4306;50.210;10.628;2022-08-19T01:42:57;20.45;;;16.05;;
8536;SDS011;4306;50.210;10.628;2022-08-19T01:45:26;23.70;;;17.23;;
8536;SDS011;4306;50.210;10.628;2022-08-19T01:47:55;19.40;;;16.65;;
8536;SDS011;4306;50.210;10.628;2022-08-19T01:50:23;24.98;;;17.52;;
8536;SDS011;4306;50.210;10.628;2022-08-19T01:52:50;20.65;;;17.33;;
8536;SDS011;4306;50.210;10.628;2022-08-19T01:55:20;21.60;;;16.65;;
8536;SDS011;4306;50.210;10.628;2022-08-19T01:57:49;21.55;;;17.20;;
8536;SDS011;4306;50.210;10.628;2022-08-19T02:00:20;22.10;;;17.58;;
8536;SDS011;4306;50.210;10.628;2022-08-19T02:02:49;20.60;;;16.77;;
8536;SDS011;4306;50.210;10.628;2022-08-19T02:05:16;24.20;;;17.65;;
8536;SDS011;4306;50.210;10.628;2022-08-19T02:07:46;20.60;;;17.00;;
8536;SDS011;4306;50.210;10.628;2022-08-19T02:10:14;19.40;;;16.42;;
8536;SDS011;4306;50.210;10.628;2022-08-19T02:12:46;19.98;;;16.35;;
8536;SDS011;4306;50.210;10.628;2022-08-19T02:15:14;19.55;;;16.05;;
8536;SDS011;4306;50.210;10.628;2022-08-19T02:17:41;20.88;;;16.60;;
8536;SDS011;4306;50.210;10.628;2022-08-19T02:20:09;20.38;;;16.83;;
8536;SDS011;4306;50.210;10.628;2022-08-19T02:22:38;18.98;;;15.80;;
8536;SDS011;4306;50.210;10.628;2022-08-19T02:25:06;20.50;;;16.83;;
8536;SDS011;4306;50.210;10.628;2022-08-19T02:27:34;20.92;;;16.40;;
8536;SDS011;4306;50.210;10.628;2022-08-19T02:30:04;18.63;;;15.90;;
8536;SDS011;4306;50.210;10.628;2022-08-19T02:32:33;19.30;;;15.57;;
8536;SDS011;4306;50.210;10.628;2022-08-19T02:35:00;20.15;;;16.38;;
8536;SDS011;4306;50.210;10.628;2022-08-19T02:37:28;20.08;;;16.15;;
8536;SDS011;4306;50.210;10.628;2022-08-19T02:40:12;17.98;;;15.60;;
8536;SDS011;4306;50.210;10.628;2022-08-19T02:42:40;16.83;;;15.05;;
8536;SDS011;4306;50.210;10.628;2022-08-19T02:45:09;19.92;;;15.60;;
8536;SDS011;4306;50.210;10.628;2022-08-19T02:47:36;19.25;;;16.88;;
8536;SDS011;4306;50.210;10.628;2022-08-19T02:50:04;19.90;;;16.38;;
8536;SDS011;4306;50.210;10.628;2022-08-19T02:52:32;22.73;;;16.80;;
8536;SDS011;4306;50.210;10.628;2022-08-19T02:54:59;20.58;;;16.13;;
8536;SDS011;4306;50.210;10.628;2022-08-19T02:57:27;18.40;;;15.82;;
8536;SDS011;4306;50.210;10.628;2022-08-19T02:59:54;17.88;;;15.98;;
8536;SDS011;4306;50.210;10.628;2022-08-19T03:02:22;20.15;;;16.42;;
8536;SDS011;4306;50.210;10.628;2022-08-19T03:04:49;22.85;;;17.02;;
8536;SDS011;4306;50.210;10.628;2022-08-19T03:07:17;21.45;;;15.80;;
8536;SDS011;4306;50.210;10.628;2022-08-19T03:09:44;22.70;;;16.10;;
8536;SDS011;4306;50.210;10.628;2022-08-19T03:12:11;22.58;;;16.90;;
8536;SDS011;4306;50.210;10.628;2022-08-19T03:14:38;20.10;;;15.63;;
8536;SDS011;4306;50.210;10.628;2022-08-19T03:17:06;20.75;;;16.80;;
8536;SDS011;4306;50.210;10.628;2022-08-19T03:19:34;18.25;;;16.20;;
8536;SDS011;4306;50.210;10.628;2022-08-19T03:22:01;18.10;;;15.98;;
8536;SDS011;4306;50.210;10.628;2022-08-19T03:24:29;18.60;;;15.73;;
8536;SDS011;4306;50.210;10.628;2022-08-19T03:26:57;19.42;;;16.17;;
8536;SDS011;4306;50.210;10.628;2022-08-19T03:29:25;18.17;;;15.38;;
8536;SDS011;4306;50.210;10.628;2022-08-19T03:31:53;18.63;;;15.68;;
8536;SDS011;4306;50.210;10.628;2022-08-19T03:34:21;20.08;;;15.93;;
8536;SDS011;4306;50.210;10.628;2022-08-19T03:36:52;20.52;;;16.55;;
8536;SDS011;4306;50.210;10.628;2022-08-19T03:39:20;21.08;;;16.88;;
8536;SDS011;4306;50.210;10.628;2022-08-19T03:41:49;21.45;;;16.05;;
8536;SDS011;4306;50.210;10.628;2022-08-19T03:44:18;18.15;;;14.65;;
8536;SDS011;4306;50.210;10.628;2022-08-19T03:46:47;19.63;;;16.30;;
8536;SDS011;4306;50.210;10.628;2022-08-19T03:49:15;19.42;;;15.68;;
8536;SDS011;4306;50.210;10.628;2022-08-19T03:51:42;20.88;;;16.27;;
8536;SDS011;4306;50.210;10.628;2022-08-19T03:54:12;18.17;;;15.05;;
8536;SDS011;4306;50.210;10.628;2022-08-19T03:56:41;19.27;;;15.60;;
8536;SDS011;4306;50.210;10.628;2022-08-19T03:59:11;17.60;;;15.40;;
8536;SDS011;4306;50.210;10.628;2022-08-19T04:01:39;18.05;;;15.30;;
8536;SDS011;4306;50.210;10.628;2022-08-19T04:04:07;17.45;;;14.25;;
8536;SDS011;4306;50.210;10.628;2022-08-19T04:06:35;20.02;;;15.75;;
8536;SDS011;4306;50.210;10.628;2022-08-19T04:09:04;16.50;;;14.15;;
8536;SDS011;4306;50.210;10.628;2022-08-19T04:11:36;18.50;;;15.05;;
8536;SDS011;4306;50.210;10.628;2022-08-19T04:14:05;19.45;;;15.73;;
8536;SDS011;4306;50.210;10.628;2022-08-19T04:16:33;19.98;;;15.02;;
8536;SDS011;4306;50.210;10.628;2022-08-19T04:19:01;20.40;;;15.05;;
8536;SDS011;4306;50.210;10.628;2022-08-19T04:21:30;16.02;;;14.30;;
8536;SDS011;4306;50.210;10.628;2022-08-19T04:23:57;16.00;;;14.30;;
8536;SDS011;4306;50.210;10.628;2022-08-19T04:26:24;16.38;;;14.02;;
8536;SDS011;4306;50.210;10.628;2022-08-19T04:28:58;17.48;;;14.13;;
8536;SDS011;4306;50.210;10.628;2022-08-19T04:31:27;17.17;;;14.75;;
8536;SDS011;4306;50.210;10.628;2022-08-19T04:33:56;17.27;;;13.35;;
8536;SDS011;4306;50.210;10.628;2022-08-19T04:36:25;16.98;;;13.93;;
8536;SDS011;4306;50.210;10.628;2022-08-19T04:38:54;15.43;;;13.52;;
8536;SDS011;4306;50.210;10.628;2022-08-19T04:41:22;16.73;;;13.85;;
8536;SDS011;4306;50.210;10.628;2022-08-19T04:44:09;16.35;;;13.90;;
8536;SDS011;4306;50.210;10.628;2022-08-19T04:46:37;17.60;;;14.02;;
8536;SDS011;4306;50.210;10.628;2022-08-19T04:49:04;16.75;;;13.38;;
8536;SDS011;4306;50.210;10.628;2022-08-19T04:51:33;15.15;;;13.05;;
8536;SDS011;4306;50.210;10.628;2022-08-19T04:54:02;18.10;;;14.38;;
8536;SDS011;4306;50.210;10.628;2022-08-19T04:56:29;19.58;;;14.32;;
8536;SDS011;4306;50.210;10.628;2022-08-19T04:58:56;16.67;;;13.95;;
8536;SDS011;4306;50.210;10.628;2022-08-19T05:01:30;15.73;;;13.95;;
8536;SDS011;4306;50.210;10.628;2022-08-19T05:03:58;15.65;;;13.93;;
8536;SDS011;4306;50.210;10.628;2022-08-19T05:06:27;17.60;;;14.30;;
8536;SDS011;4306;50.210;10.628;2022-08-19T05:08:58;18.02;;;13.85;;
8536;SDS011;4306;50.210;10.628;2022-08-19T05:11:26;15.95;;;13.93;;
8536;SDS011;4306;50.210;10.628;2022-08-19T05:13:55;15.50;;;13.88;;
8536;SDS011;4306;50.210;10.628;2022-08-19T05:16:23;16.95;;;13.77;;
8536;SDS011;4306;50.210;10.628;2022-08-19T05:18:53;16.77;;;14.35;;
8536;SDS011;4306;50.210;10.628;2022-08-19T05:21:39;15.75;;;13.77;;
8536;SDS011;4306;50.210;10.628;2022-08-19T05:24:36;15.95;;;13.05;;
8536;SDS011;4306;50.210;10.628;2022-08-19T05:27:03;18.25;;;14.07;;
8536;SDS011;4306;50.210;10.628;2022-08-19T05:29:31;18.67;;;14.02;;
8536;SDS011;4306;50.210;10.628;2022-08-19T05:31:59;15.93;;;13.05;;
8536;SDS011;4306;50.210;10.628;2022-08-19T05:34:28;15.68;;;13.05;;
8536;SDS011;4306;50.210;10.628;2022-08-19T05:36:56;69.72;;;18.67;;
8536;SDS011;4306;50.210;10.628;2022-08-19T05:39:25;17.38;;;13.23;;
8536;SDS011;4306;50.210;10.628;2022-08-19T05:41:55;19.10;;;14.02;;
8536;SDS011;4306;50.210;10.628;2022-08-19T05:44:24;16.05;;;13.75;;
8536;SDS011;4306;50.210;10.628;2022-08-19T05:46:52;15.38;;;13.77;;
8536;SDS011;4306;50.210;10.628;2022-08-19T05:49:20;14.95;;;13.18;;
8536;SDS011;4306;50.210;10.628;2022-08-19T05:51:49;123.00;;;22.42;;
8536;SDS011;4306;50.210;10.628;2022-08-19T05:54:16;21.40;;;15.75;;
8536;SDS011;4306;50.210;10.628;2022-08-19T05:56:44;26.10;;;15.02;;
8536;SDS011;4306;50.210;10.628;2022-08-19T05:59:13;18.83;;;14.77;;
8536;SDS011;4306;50.210;10.628;2022-08-19T06:01:42;19.70;;;15.25;;
8536;SDS011;4306;50.210;10.628;2022-08-19T06:04:11;17.65;;;15.38;;
8536;SDS011;4306;50.210;10.628;2022-08-19T06:06:39;17.13;;;15.40;;
8536;SDS011;4306;50.210;10.628;2022-08-19T06:09:08;18.13;;;16.10;;
8536;SDS011;4306;50.210;10.628;2022-08-19T06:11:37;21.15;;;15.68;;
8536;SDS011;4306;50.210;10.628;2022-08-19T06:14:07;19.10;;;15.27;;
8536;SDS011;4306;50.210;10.628;2022-08-19T06:16:36;19.85;;;15.75;;
8536;SDS011;4306;50.210;10.628;2022-08-19T06:19:05;21.35;;;17.40;;
8536;SDS011;4306;50.210;10.628;2022-08-19T06:21:33;21.92;;;16.15;;
8536;SDS011;4306;50.210;10.628;2022-08-19T06:24:03;155.15;;;28.08;;
8536;SDS011;4306;50.210;10.628;2022-08-19T06:26:32;24.52;;;17.75;;
8536;SDS011;4306;50.210;10.628;2022-08-19T06:29:00;32.85;;;18.23;;
8536;SDS011;4306;50.210;10.628;2022-08-19T06:31:28;59.42;;;21.02;;
8536;SDS011;4306;50.210;10.628;2022-08-19T06:33:58;19.63;;;15.80;;
8536;SDS011;4306;50.210;10.628;2022-08-19T06:36:27;18.70;;;16.65;;
8536;SDS011;4306;50.210;10.628;2022-08-19T06:38:56;19.75;;;17.02;;
8536;SDS011;4306;50.210;10.628;2022-08-19T06:41:24;18.63;;;16.63;;
8536;SDS011;4306;50.210;10.628;2022-08-19T06:43:53;19.83;;;17.30;;
8536;SDS011;4306;50.210;10.628;2022-08-19T06:46:21;21.30;;;16.75;;
8536;SDS011;4306;50.210;10.628;2022-08-19T06:48:48;19.23;;;17.17;;
8536;SDS011;4306;50.210;10.628;2022-08-19T06:51:18;20.02;;;16.58;;
8536;SDS011;4306;50.210;10.628;2022-08-19T06:53:46;30.27;;;19.80;;
8536;SDS011;4306;50.210;10.628;2022-08-19T06:56:16;23.88;;;19.85;;
8536;SDS011;4306;50.210;10.628;2022-08-19T06:58:44;27.80;;;21.30;;
8536;SDS011;4306;50.210;10.628;2022-08-19T07:01:13;24.33;;;21.33;;
8536;SDS011;4306;50.210;10.628;2022-08-19T07:03:42;24.70;;;19.40;;
8536;SDS011;4306;50.210;10.628;2022-08-19T07:06:16;24.20;;;20.30;;
8536;SDS011;4306;50.210;10.628;2022-08-19T07:08:45;24.52;;;21.38;;
8536;SDS011;4306;50.210;10.628;2022-08-19T07:11:15;26.75;;;21.45;;
8536;SDS011;4306;50.210;10.628;2022-08-19T07:13:44;25.70;;;20.80;;
8536;SDS011;4306;50.210;10.628;2022-08-19T07:16:16;25.30;;;22.20;;
8536;SDS011;4306;50.210;10.628;2022-08-19T07:18:44;25.08;;;22.38;;
8536;SDS011;4306;50.210;10.628;2022-08-19T07:21:13;25.15;;;20.58;;
8536;SDS011;4306;50.210;10.628;2022-08-19T07:23:42;24.90;;;20.88;;
8536;SDS011;4306;50.210;10.628;2022-08-19T07:26:11;23.73;;;20.30;;
8536;SDS011;4306;50.210;10.628;2022-08-19T07:28:45;24.83;;;21.98;;
8536;SDS011;4306;50.210;10.628;2022-08-19T07:31:21;26.27;;;23.02;;
8536;SDS011;4306;50.210;10.628;2022-08-19T07:33:55;24.52;;;21.50;;
8536;SDS011;4306;50.210;10.628;2022-08-19T07:36:23;28.20;;;24.48;;
8536;SDS011;4306;50.210;10.628;2022-08-19T07:38:57;30.40;;;24.45;;
8536;SDS011;4306;50.210;10.628;2022-08-19T07:41:27;25.77;;;22.98;;
8536;SDS011;4306;50.210;10.628;2022-08-19T07:43:56;24.73;;;21.73;;
8536;SDS011;4306;50.210;10.628;2022-08-19T07:46:30;24.73;;;21.58;;
8536;SDS011;4306;50.210;10.628;2022-08-19T07:48:58;24.83;;;21.48;;
8536;SDS011;4306;50.210;10.628;2022-08-19T07:51:26;23.60;;;21.13;;
8536;SDS011;4306;50.210;10.628;2022-08-19T07:53:55;24.40;;;21.83;;
8536;SDS011;4306;50.210;10.628;2022-08-19T07:56:22;22.92;;;20.58;;
8536;SDS011;4306;50.210;10.628;2022-08-19T07:58:52;24.77;;;22.23;;
8536;SDS011;4306;50.210;10.628;2022-08-19T08:01:20;24.42;;;21.85;;
8536;SDS011;4306;50.210;10.628;2022-08-19T08:03:51;25.52;;;22.40;;
8536;SDS011;4306;50.210;10.628;2022-08-19T08:06:39;26.15;;;23.00;;
8536;SDS011;4306;50.210;10.628;2022-08-19T08:09:26;26.33;;;22.00;;
8536;SDS011;4306;50.210;10.628;2022-08-19T08:11:57;30.75;;;24.85;;
8536;SDS011;4306;50.210;10.628;2022-08-19T08:14:27;27.17;;;22.75;;
8536;SDS011;4306;50.210;10.628;2022-08-19T08:16:56;23.02;;;20.67;;
8536;SDS011;4306;50.210;10.628;2022-08-19T08:19:26;24.30;;;21.80;;
8536;SDS011;4306;50.210;10.628;2022-08-19T08:21:54;23.50;;;21.20;;
8536;SDS011;4306;50.210;10.628;2022-08-19T08:24:23;24.35;;;21.75;;
8536;SDS011;4306;50.210;10.628;2022-08-19T08:26:50;23.05;;;20.33;;
8536;SDS011;4306;50.210;10.628;2022-08-19T08:29:17;25.00;;;20.83;;
8536;SDS011;4306;50.210;10.628;2022-08-19T08:31:45;23.25;;;20.90;;
8536;SDS011;4306;50.210;10.628;2022-08-19T08:34:13;24.90;;;21.95;;
8536;SDS011;4306;50.210;10.628;2022-08-19T08:36:44;23.92;;;21.42;;
8536;SDS011;4306;50.210;10.628;2022-08-19T08:39:13;22.55;;;20.23;;
8536;SDS011;4306;50.210;10.628;2022-08-19T08:41:44;23.95;;;20.65;;
8536;SDS011;4306;50.210;10.628;2022-08-19T08:44:20;22.75;;;20.33;;
8536;SDS011;4306;50.210;10.628;2022-08-19T08:46:49;23.30;;;20.90;;
8536;SDS011;4306;50.210;10.628;2022-08-19T08:49:24;24.83;;;22.27;;
8536;SDS011;4306;50.210;10.628;2022-08-19T08:51:58;23.75;;;19.85;;
8536;SDS011;4306;50.210;10.628;2022-08-19T08:54:30;22.25;;;19.77;;
8536;SDS011;4306;50.210;10.628;2022-08-19T08:57:02;22.90;;;19.55;;
8536;SDS011;4306;50.210;10.628;2022-08-19T08:59:34;20.63;;;18.42;;
8536;SDS011;4306;50.210;10.628;2022-08-19T09:02:03;21.63;;;17.45;;
8536;SDS011;4306;50.210;10.628;2022-08-19T09:04:30;22.02;;;19.23;;
8536;SDS011;4306;50.210;10.628;2022-08-19T09:07:01;20.63;;;18.08;;
8536;SDS011;4306;50.210;10.628;2022-08-19T09:09:43;21.15;;;18.70;;
8536;SDS011;4306;50.210;10.628;2022-08-19T09:12:14;21.25;;;18.95;;
8536;SDS011;4306;50.210;10.628;2022-08-19T09:14:50;20.23;;;18.08;;
8536;SDS011;4306;50.210;10.628;2022-08-19T09:17:22;22.73;;;18.25;;
8536;SDS011;4306;50.210;10.628;2022-08-19T09:19:56;20.25;;;18.00;;
8536;SDS011;4306;50.210;10.628;2022-08-19T09:22:27;21.77;;;17.38;;
8536;SDS011;4306;50.210;10.628;2022-08-19T09:24:54;18.73;;;16.85;;
8536;SDS011;4306;50.210;10.628;2022-08-19T09:27:21;19.35;;;16.55;;
8536;SDS011;4306;50.210;10.628;2022-08-19T09:29:50;17.83;;;15.95;;
8536;SDS011;4306;50.210;10.628;2022-08-19T09:32:18;17.48;;;15.75;;
8536;SDS011;4306;50.210;10.628;2022-08-19T09:34:45;17.45;;;15.20;;
8536;SDS011;4306;50.210;10.628;2022-08-19T09:37:13;16.15;;;14.45;;
8536;SDS011;4306;50.210;10.628;2022-08-19T09:39:42;15.75;;;14.15;;
8536;SDS011;4306;50.210;10.628;2022-08-19T09:42:09;15.45;;;13.98;;
8536;SDS011;4306;50.210;10.628;2022-08-19T09:44:37;14.65;;;12.98;;
8536;SDS011;4306;50.210;10.628;2022-08-19T09:47:04;14.43;;;13.00;;
8536;SDS011;4306;50.210;10.628;2022-08-19T09:49:32;15.63;;;12.95;;
8536;SDS011;4306;50.210;10.628;2022-08-19T09:51:59;13.65;;;12.27;;
8536;SDS011;4306;50.210;10.628;2022-08-19T09:54:27;14.35;;;11.95;;
8536;SDS011;4306;50.210;10.628;2022-08-19T09:56:57;12.85;;;11.45;;
8536;SDS011;4306;50.210;10.628;2022-08-19T09:59:26;13.68;;;10.98;;
8536;SDS011;4306;50.210;10.628;2022-08-19T10:01:54;12.80;;;10.48;;
8536;SDS011;4306;50.210;10.628;2022-08-19T10:04:23;12.25;;;10.98;;
8536;SDS011;4306;50.210;10.628;2022-08-19T10:07:12;11.30;;;9.95;;
8536;SDS011;4306;50.210;10.628;2022-08-19T10:09:40;10.50;;;9.38;;
8536;SDS011;4306;50.210;10.628;2022-08-19T10:12:08;10.80;;;9.70;;
8536;SDS011;4306;50.210;10.628;2022-08-19T10:14:35;9.52;;;8.50;;
8536;SDS011;4306;50.210;10.628;2022-08-19T10:17:02;10.23;;;8.27;;
8536;SDS011;4306;50.210;10.628;2022-08-19T10:19:29;9.32;;;8.35;;
8536;SDS011;4306;50.210;10.628;2022-08-19T10:22:02;10.68;;;8.00;;
8536;SDS011;4306;50.210;10.628;2022-08-19T10:24:31;9.73;;;7.25;;
8536;SDS011;4306;50.210;10.628;2022-08-19T10:26:59;8.43;;;7.53;;
8536;SDS011;4306;50.210;10.628;2022-08-19T10:29:29;8.85;;;7.72;;
8536;SDS011;4306;50.210;10.628;2022-08-19T10:31:59;11.63;;;7.50;;
8536;SDS011;4306;50.210;10.628;2022-08-19T10:34:28;9.85;;;7.65;;
8536;SDS011;4306;50.210;10.628;2022-08-19T10:36:55;8.63;;;6.60;;
8536;SDS011;4306;50.210;10.628;2022-08-19T10:39:23;9.73;;;7.00;;
8536;SDS011;4306;50.210;10.628;2022-08-19T10:41:50;9.63;;;6.32;;
8536;SDS011;4306;50.210;10.628;2022-08-19T10:44:17;10.07;;;6.15;;
8536;SDS011;4306;50.210;10.628;2022-08-19T10:46:45;9.95;;;6.53;;
8536;SDS011;4306;50.210;10.628;2022-08-19T10:49:13;7.68;;;6.25;;
8536;SDS011;4306;50.210;10.628;2022-08-19T10:51:40;7.25;;;6.03;;
8536;SDS011;4306;50.210;10.628;2022-08-19T10:54:27;6.45;;;5.85;;
8536;SDS011;4306;50.210;10.628;2022-08-19T10:57:08;7.45;;;5.70;;
8536;SDS011;4306;50.210;10.628;2022-08-19T10:59:35;8.80;;;5.95;;
8536;SDS011;4306;50.210;10.628;2022-08-19T11:02:04;9.30;;;6.35;;
8536;SDS011;4306;50.210;10.628;2022-08-19T11:04:34;8.13;;;5.88;;
8536;SDS011;4306;50.210;10.628;2022-08-19T11:07:02;6.43;;;5.50;;
8536;SDS011;4306;50.210;10.628;2022-08-19T11:09:30;7.00;;;4.95;;
8536;SDS011;4306;50.210;10.628;2022-08-19T11:11:57;5.97;;;5.07;;
8536;SDS011;4306;50.210;10.628;2022-08-19T11:14:24;8.27;;;5.00;;
8536;SDS011;4306;50.210;10.628;2022-08-19T11:16:51;7.57;;;5.30;;
8536;SDS011;4306;50.210;10.628;2022-08-19T11:19:22;5.22;;;4.50;;
8536;SDS011;4306;50.210;10.628;2022-08-19T11:21:49;5.18;;;4.28;;
8536;SDS011;4306;50.210;10.628;2022-08-19T11:24:20;7.38;;;4.50;;
8536;SDS011;4306;50.210;10.628;2022-08-19T11:26:49;5.60;;;4.57;;
8536;SDS011;4306;50.210;10.628;2022-08-19T11:29:18;6.55;;;4.32;;
8536;SDS011;4306;50.210;10.628;2022-08-19T11:31:50;5.32;;;4.60;;
8536;SDS011;4306;50.210;10.628;2022-08-19T11:34:19;6.13;;;4.95;;
8536;SDS011;4306;50.210;10.628;2022-08-19T11:36:49;5.45;;;4.40;;
8536;SDS011;4306;50.210;10.628;2022-08-19T11:39:18;5.90;;;4.85;;
8536;SDS011;4306;50.210;10.628;2022-08-19T11:41:46;4.80;;;4.22;;
8536;SDS011;4306;50.210;10.628;2022-08-19T11:44:14;6.22;;;3.85;;
8536;SDS011;4306;50.210;10.628;2022-08-19T11:46:41;6.65;;;3.70;;
8536;SDS011;4306;50.210;10.628;2022-08-19T11:49:11;4.63;;;4.07;;
8536;SDS011;4306;50.210;10.628;2022-08-19T11:51:40;5.00;;;3.83;;
8536;SDS011;4306;50.210;10.628;2022-08-19T11:54:08;6.85;;;3.95;;
8536;SDS011;4306;50.210;10.628;2022-08-19T11:56:36;6.53;;;4.35;;
8536;SDS011;4306;50.210;10.628;2022-08-19T11:59:03;5.25;;;4.45;;
8536;SDS011;4306;50.210;10.628;2022-08-19T12:01:30;5.97;;;4.50;;
8536;SDS011;4306;50.210;10.628;2022-08-19T12:03:58;7.28;;;4.85;;
8536;SDS011;4306;50.210;10.628;2022-08-19T12:06:26;12.25;;;4.65;;
8536;SDS011;4306;50.210;10.628;2022-08-19T12:08:57;7.70;;;4.53;;
8536;SDS011;4306;50.210;10.628;2022-08-19T12:11:25;5.85;;;4.57;;
8536;SDS011;4306;50.210;10.628;2022-08-19T12:13:53;7.30;;;4.57;;
8536;SDS011;4306;50.210;10.628;2022-08-19T12:16:21;5.85;;;4.55;;
8536;SDS011;4306;50.210;10.628;2022-08-19T12:18:49;5.68;;;4.50;;
8536;SDS011;4306;50.210;10.628;2022-08-19T12:21:17;5.97;;;4.20;;
8536;SDS011;4306;50.210;10.628;2022-08-19T12:23:47;6.53;;;4.30;;
8536;SDS011;4306;50.210;10.628;2022-08-19T12:26:17;5.20;;;3.88;;
8536;SDS011;4306;50.210;10.628;2022-08-19T12:28:44;5.53;;;3.90;;
8536;SDS011;4306;50.210;10.628;2022-08-19T12:31:13;5.03;;;4.13;;
8536;SDS011;4306;50.210;10.628;2022-08-19T12:33:41;4.63;;;3.78;;
8536;SDS011;4306;50.210;10.628;2022-08-19T12:36:09;4.93;;;4.10;;
8536;SDS011;4306;50.210;10.628;2022-08-19T12:38:38;6.32;;;3.80;;
8536;SDS011;4306;50.210;10.628;2022-08-19T12:41:06;6.07;;;3.60;;
8536;SDS011;4306;50.210;10.628;2022-08-19T12:43:37;5.75;;;3.65;;
8536;SDS011;4306;50.210;10.628;2022-08-19T12:46:05;5.35;;;3.30;;
8536;SDS011;4306;50.210;10.628;2022-08-19T12:48:32;6.47;;;3.40;;
8536;SDS011;4306;50.210;10.628;2022-08-19T12:51:00;3.60;;;3.08;;
8536;SDS011;4306;50.210;10.628;2022-08-19T12:53:31;4.82;;;3.22;;
8536;SDS011;4306;50.210;10.628;2022-08-19T12:55:58;5.65;;;3.28;;
8536;SDS011;4306;50.210;10.628;2022-08-19T12:58:25;4.10;;;2.97;;
8536;SDS011;4306;50.210;10.628;2022-08-19T13:00:55;3.42;;;2.80;;
8536;SDS011;4306;50.210;10.628;2022-08-19T13:03:22;4.05;;;2.58;;
8536;SDS011;4306;50.210;10.628;2022-08-19T13:05:54;3.15;;;2.45;;
8536;SDS011;4306;50.210;10.628;2022-08-19T13:08:21;3.78;;;2.30;;
8536;SDS011;4306;50.210;10.628;2022-08-19T13:10:48;4.22;;;2.20;;
8536;SDS011;4306;50.210;10.628;2022-08-19T13:13:16;4.45;;;2.30;;
8536;SDS011;4306;50.210;10.628;2022-08-19T13:15:43;4.47;;;2.03;;
8536;SDS011;4306;50.210;10.628;2022-08-19T13:18:12;3.03;;;2.28;;
8536;SDS011;4306;50.210;10.628;2022-08-19T13:20:39;2.30;;;1.90;;
8536;SDS011;4306;50.210;10.628;2022-08-19T13:23:07;3.15;;;2.17;;
8536;SDS011;4306;50.210;10.628;2022-08-19T13:25:34;3.08;;;2.13;;
8536;SDS011;4306;50.210;10.628;2022-08-19T13:28:02;2.72;;;1.90;;
8536;SDS011;4306;50.210;10.628;2022-08-19T13:30:31;2.40;;;1.90;;
8536;SDS011;4306;50.210;10.628;2022-08-19T13:33:17;3.97;;;2.00;;
8536;SDS011;4306;50.210;10.628;2022-08-19T13:35:46;3.25;;;1.90;;
8536;SDS011;4306;50.210;10.628;2022-08-19T13:38:15;2.25;;;1.95;;
8536;SDS011;4306;50.210;10.628;2022-08-19T13:40:43;3.42;;;2.10;;
8536;SDS011;4306;50.210;10.628;2022-08-19T13:43:11;2.92;;;2.08;;
8536;SDS011;4306;50.210;10.628;2022-08-19T13:45:38;2.70;;;2.05;;
8536;SDS011;4306;50.210;10.628;2022-08-19T13:48:06;5.15;;;2.28;;
8536;SDS011;4306;50.210;10.628;2022-08-19T13:50:37;2.80;;;2.00;;
8536;SDS011;4306;50.210;10.628;2022-08-19T13:53:06;3.22;;;2.05;;
8536;SDS011;4306;50.210;10.628;2022-08-19T13:55:34;4.03;;;2.30;;
8536;SDS011;4306;50.210;10.628;2022-08-19T13:58:01;3.60;;;2.20;;
8536;SDS011;4306;50.210;10.628;2022-08-19T14:00:29;4.32;;;2.08;;
8536;SDS011;4306;50.210;10.628;2022-08-19T14:02:57;4.47;;;2.17;;
8536;SDS011;4306;50.210;10.628;2022-08-19T14:05:25;3.30;;;2.05;;
8536;SDS011;4306;50.210;10.628;2022-08-19T14:07:55;2.83;;;2.13;;
8536;SDS011;4306;50.210;10.628;2022-08-19T14:10:22;3.05;;;2.00;;
8536;SDS011;4306;50.210;10.628;2022-08-19T14:12:51;4.53;;;2.05;;
8536;SDS011;4306;50.210;10.628;2022-08-19T14:15:20;2.38;;;1.98;;
8536;SDS011;4306;50.210;10.628;2022-08-19T14:17:48;3.53;;;2.00;;
8536;SDS011;4306;50.210;10.628;2022-08-19T14:20:15;2.63;;;1.77;;
8536;SDS011;4306;50.210;10.628;2022-08-19T14:22:43;3.92;;;2.25;;
8536;SDS011;4306;50.210;10.628;2022-08-19T14:25:20;2.92;;;2.17;;
8536;SDS011;4306;50.210;10.628;2022-08-19T14:27:49;3.65;;;1.98;;
8536;SDS011;4306;50.210;10.628;2022-08-19T14:30:17;4.50;;;2.17;;
8536;SDS011;4306;50.210;10.628;2022-08-19T14:32:45;3.00;;;2.10;;
8536;SDS011;4306;50.210;10.628;2022-08-19T14:35:13;3.90;;;2.08;;
8536;SDS011;4306;50.210;10.628;2022-08-19T14:37:41;3.38;;;1.88;;
8536;SDS011;4306;50.210;10.628;2022-08-19T14:40:09;2.67;;;1.85;;
8536;SDS011;4306;50.210;10.628;2022-08-19T14:42:38;3.40;;;1.83;;
8536;SDS011;4306;50.210;10.628;2022-08-19T14:45:06;3.45;;;2.03;;
8536;SDS011;4306;50.210;10.628;2022-08-19T14:47:34;2.70;;;2.10;;
8536;SDS011;4306;50.210;10.628;2022-08-19T14:50:01;4.55;;;2.15;;
8536;SDS011;4306;50.210;10.628;2022-08-19T14:52:28;6.43;;;2.03;;
8536;SDS011;4306;50.210;10.628;2022-08-19T14:54:55;4.00;;;1.85;;